Terminal Aerodrome Forecast
Issued by NWS Wakefield, VA

Home | Current Version | Previous Version | Text Only | Print | Product List | Glossary On
Versions: 1 2 3 4 5 6 7 8 9 10 11 12 13 14 15 16 17 18 19 20 21 22
089
FTUS41 KAKQ 182320
TAFORF
TAF
KORF 182320Z 1900/1924 20015KT P6SM SKC
     FM190300 20010KT 6SM -SHRA VCTS SCT030CB BKN100
     FM190700 23006KT P6SM BKN020 BKN250
     FM191300 33005KT P6SM SCT025 BKN150
     FM191500 01007KT P6SM SCT040 BKN150=

USA.gov is the U.S. government's official web portal to all federal, state and local government web resources and services.